Time;durP1;ratioP1;P1;durP2;ratioP2;P2;SDS_P1;SDS_P2;PMS_P1;PMS_P2;Temp;Humidity;BMP_temperature;BMP_pressure;BME280_temperature;BME280_humidity;BME280_pressure;Samples;Min_cycle;Max_cycle;Signal;HPM_P1;HPM_P2
2022/04/02 00:00:13;;;;;;;2.63;1.58;;;;;;;;;;4947768;29;20426;-67
2022/04/02 00:02:44;;;;;;;3.08;1.50;;;;;;;;;;4948168;29;20051;-67
2022/04/02 00:05:14;;;;;;;3.00;1.48;;;;;;;;;;4947623;28;20040;-67
2022/04/02 00:07:44;;;;;;;3.58;2.05;;;;;;;;;;4943938;28;20495;-67
2022/04/02 00:10:13;;;;;;;2.25;1.30;;;;;;;;;;4948716;28;20052;-67
2022/04/02 00:12:41;;;;;;;1.70;1.40;;;;;;;;;;4948283;28;20090;-67
2022/04/02 00:15:10;;;;;;;5.20;2.28;;;;;;;;;;4948880;28;20403;-67
2022/04/02 00:17:40;;;;;;;6.20;1.83;;;;;;;;;;4946814;28;20130;-67
2022/04/02 00:20:09;;;;;;;3.10;1.70;;;;;;;;;;4949809;29;20051;-66
2022/04/02 00:22:37;;;;;;;3.35;2.05;;;;;;;;;;4946479;29;20073;-68
2022/04/02 00:25:06;;;;;;;5.53;1.90;;;;;;;;;;4947097;29;20091;-67
2022/04/02 00:27:36;;;;;;;3.72;1.77;;;;;;;;;;4943046;28;20170;-68
2022/04/02 00:30:06;;;;;;;5.90;1.77;;;;;;;;;;4945504;28;20187;-68
2022/04/02 00:32:34;;;;;;;4.00;1.52;;;;;;;;;;4946599;29;20055;-68
2022/04/02 00:35:03;;;;;;;3.75;1.65;;;;;;;;;;4947841;28;20048;-68
2022/04/02 00:37:33;;;;;;;4.07;1.65;;;;;;;;;;4943563;28;20048;-68
2022/04/02 00:40:05;;;;;;;5.95;2.75;;;;;;;;;;4949774;29;20103;-67
2022/04/02 00:42:33;;;;;;;3.50;1.42;;;;;;;;;;4949211;28;20047;-68
2022/04/02 00:45:02;;;;;;;1.55;1.45;;;;;;;;;;4944979;28;20159;-68
2022/04/02 00:47:30;;;;;;;4.93;2.00;;;;;;;;;;4945057;28;20056;-68
2022/04/02 00:50:00;;;;;;;1.77;1.48;;;;;;;;;;4950596;29;20139;-68
2022/04/02 00:52:29;;;;;;;5.65;1.67;;;;;;;;;;4946605;28;20373;-68
2022/04/02 00:55:00;;;;;;;2.30;1.90;;;;;;;;;;4949787;29;20095;-68
2022/04/02 00:57:31;;;;;;;4.45;1.50;;;;;;;;;;4948266;28;20055;-68
2022/04/02 00:59:59;;;;;;;2.45;1.88;;;;;;;;;;4948359;29;20055;-68
2022/04/02 01:02:29;;;;;;;4.57;2.55;;;;;;;;;;4949042;28;20557;-68
2022/04/02 01:04:57;;;;;;;3.30;1.52;;;;;;;;;;4954663;28;20054;-68
2022/04/02 01:07:32;;;;;;;6.03;2.90;;;;;;;;;;4942795;28;20071;-68
2022/04/02 01:10:03;;;;;;;3.60;2.22;;;;;;;;;;4937122;29;20054;-68
2022/04/02 01:12:34;;;;;;;4.93;1.90;;;;;;;;;;4945488;29;20452;-68
2022/04/02 01:15:04;;;;;;;3.22;1.50;;;;;;;;;;4945682;28;20051;-67
2022/04/02 01:17:40;;;;;;;4.22;1.85;;;;;;;;;;4946894;29;20083;-67
2022/04/02 01:20:22;;;;;;;6.25;2.65;;;;;;;;;;4941474;29;20581;-68
2022/04/02 01:22:53;;;;;;;5.43;2.33;;;;;;;;;;4945558;29;20039;-67
2022/04/02 01:25:23;;;;;;;2.88;1.73;;;;;;;;;;4936497;28;20079;-67
2022/04/02 01:27:53;;;;;;;4.35;2.10;;;;;;;;;;4938705;29;20062;-67
2022/04/02 01:30:25;;;;;;;3.65;2.30;;;;;;;;;;4954986;29;20055;-68
2022/04/02 01:32:56;;;;;;;3.70;2.37;;;;;;;;;;4955014;28;20047;-67
2022/04/02 01:35:25;;;;;;;2.58;1.90;;;;;;;;;;4954609;28;20102;-67
2022/04/02 01:38:11;;;;;;;6.70;2.03;;;;;;;;;;4955112;29;20055;-67
2022/04/02 01:40:39;;;;;;;4.00;1.92;;;;;;;;;;4956056;28;20035;-68
2022/04/02 01:43:10;;;;;;;4.82;2.38;;;;;;;;;;4954780;28;20048;-68
2022/04/02 01:45:47;;;;;;;2.60;2.20;;;;;;;;;;4954907;28;20264;-68
2022/04/02 01:48:22;;;;;;;2.88;1.80;;;;;;;;;;4955241;28;20142;-68
2022/04/02 01:50:55;;;;;;;2.45;1.70;;;;;;;;;;4954748;28;20463;-68
2022/04/02 01:53:25;;;;;;;3.72;1.73;;;;;;;;;;4949038;28;20040;-68
2022/04/02 01:55:55;;;;;;;2.40;2.03;;;;;;;;;;4936421;29;20471;-68
2022/04/02 01:58:45;;;;;;;3.95;1.88;;;;;;;;;;4941469;28;20059;-67
2022/04/02 02:01:20;;;;;;;5.70;2.33;;;;;;;;;;4954471;29;20102;-68
2022/04/02 02:03:49;;;;;;;3.25;1.80;;;;;;;;;;4954259;28;20102;-68
2022/04/02 02:06:18;;;;;;;4.35;1.75;;;;;;;;;;4945201;28;20051;-67
2022/04/02 02:08:52;;;;;;;5.63;2.17;;;;;;;;;;4936933;29;20048;-68
2022/04/02 02:11:40;;;;;;;4.10;2.30;;;;;;;;;;4936647;29;20706;-68
2022/04/02 02:14:21;;;;;;;2.10;1.90;;;;;;;;;;4936844;29;20051;-68
2022/04/02 02:17:04;;;;;;;2.97;1.95;;;;;;;;;;4950805;29;20055;-68
2022/04/02 02:19:32;;;;;;;2.40;1.90;;;;;;;;;;4936710;29;20052;-68
2022/04/02 02:22:00;;;;;;;3.28;1.80;;;;;;;;;;4934795;29;20051;-68
2022/04/02 02:24:29;;;;;;;7.03;2.20;;;;;;;;;;4951228;29;20055;-68
2022/04/02 02:26:58;;;;;;;2.90;2.05;;;;;;;;;;4936351;29;20082;-68
2022/04/02 02:29:32;;;;;;;3.10;1.98;;;;;;;;;;4935297;29;20098;-68
2022/04/02 02:32:15;;;;;;;2.63;1.40;;;;;;;;;;4935171;29;20066;-68
2022/04/02 02:37:34;;;;;;;4.22;2.03;;;;;;;;;;4935414;29;20052;-68
2022/04/02 02:40:08;;;;;;;3.97;2.35;;;;;;;;;;4950907;28;20048;-67
2022/04/02 02:42:37;;;;;;;2.03;1.58;;;;;;;;;;4951173;28;20055;-66
2022/04/02 02:45:33;;;;;;;13.13;4.30;;;;;;;;;;4935623;29;20062;-68
2022/04/02 02:48:03;;;;;;;2.10;1.90;;;;;;;;;;4936403;29;20044;-67
2022/04/02 02:50:59;;;;;;;3.35;2.70;;;;;;;;;;4936705;29;20138;-67
2022/04/02 02:53:30;;;;;;;5.53;2.30;;;;;;;;;;4950888;28;20090;-68
2022/04/02 02:55:58;;;;;;;4.05;2.30;;;;;;;;;;4950476;28;20052;-68
2022/04/02 02:58:26;;;;;;;2.63;2.40;;;;;;;;;;4936047;29;20070;-67
2022/04/02 03:00:57;;;;;;;2.70;2.35;;;;;;;;;;4950652;29;20059;-68
2022/04/02 03:03:29;;;;;;;4.57;3.30;;;;;;;;;;4935017;29;20048;-67
2022/04/02 03:06:00;;;;;;;4.32;2.65;;;;;;;;;;4922121;29;20052;-67
2022/04/02 03:08:38;;;;;;;2.63;2.42;;;;;;;;;;4938764;29;20047;-68
2022/04/02 03:11:06;;;;;;;5.47;1.90;;;;;;;;;;4954594;29;20155;-68
2022/04/02 03:13:38;;;;;;;2.55;1.95;;;;;;;;;;4939818;29;20040;-68
2022/04/02 03:16:09;;;;;;;3.30;1.85;;;;;;;;;;4954839;28;20142;-68
2022/04/02 03:18:45;;;;;;;1.80;1.70;;;;;;;;;;4923908;29;20051;-68
2022/04/02 03:21:18;;;;;;;2.45;1.80;;;;;;;;;;4938591;29;20056;-67
2022/04/02 03:23:48;;;;;;;2.40;2.20;;;;;;;;;;4941687;29;20055;-68
2022/04/02 03:26:20;;;;;;;4.22;3.08;;;;;;;;;;4957850;28;20062;-67
2022/04/02 03:28:51;;;;;;;2.17;2.00;;;;;;;;;;4943548;28;20115;-67
2022/04/02 03:31:22;;;;;;;2.25;2.05;;;;;;;;;;4954132;28;20500;-68
2022/04/02 03:33:54;;;;;;;2.60;2.20;;;;;;;;;;4941013;29;20055;-67
2022/04/02 03:36:23;;;;;;;3.15;2.88;;;;;;;;;;4957232;28;20531;-67
2022/04/02 03:38:53;;;;;;;2.40;2.05;;;;;;;;;;4945588;28;20048;-68
2022/04/02 03:41:23;;;;;;;5.53;2.83;;;;;;;;;;4939426;29;20052;-68
2022/04/02 03:43:53;;;;;;;2.22;2.03;;;;;;;;;;4969972;28;20048;-68
2022/04/02 03:49:13;;;;;;;2.88;2.33;;;;;;;;;;4956862;28;19970;-68
2022/04/02 03:51:44;;;;;;;4.70;2.47;;;;;;;;;;4937948;29;20111;-69
2022/04/02 03:54:20;;;;;;;9.68;3.05;;;;;;;;;;4953898;29;20047;-68
2022/04/02 03:56:53;;;;;;;3.28;2.97;;;;;;;;;;4954004;28;20059;-69
2022/04/02 03:59:21;;;;;;;3.33;2.30;;;;;;;;;;4956670;28;20063;-70
2022/04/02 04:01:54;;;;;;;2.22;2.00;;;;;;;;;;4956784;28;20446;-70
2022/04/02 04:04:24;;;;;;;2.67;2.47;;;;;;;;;;4972919;28;20047;-69
2022/04/02 04:06:56;;;;;;;2.33;2.05;;;;;;;;;;4956195;28;20086;-69
2022/04/02 04:09:25;;;;;;;3.70;2.50;;;;;;;;;;4941350;29;20172;-69
2022/04/02 04:11:54;;;;;;;2.58;2.38;;;;;;;;;;4956388;28;20051;-70
2022/04/02 04:14:26;;;;;;;2.38;1.95;;;;;;;;;;4956845;28;20048;-69
2022/04/02 04:16:55;;;;;;;2.30;2.10;;;;;;;;;;4956122;28;20053;-69
2022/04/02 04:19:23;;;;;;;3.45;2.20;;;;;;;;;;4940568;29;20065;-70
2022/04/02 04:21:53;;;;;;;2.20;2.10;;;;;;;;;;4956325;28;20059;-70
2022/04/02 04:24:23;;;;;;;2.30;2.10;;;;;;;;;;4956476;28;20514;-70
2022/04/02 04:26:52;;;;;;;2.42;2.22;;;;;;;;;;4956095;28;20046;-70
2022/04/02 04:29:23;;;;;;;2.45;2.35;;;;;;;;;;4956221;29;20043;-70
2022/04/02 04:31:52;;;;;;;6.00;3.42;;;;;;;;;;4956598;29;20510;-70
2022/04/02 04:34:20;;;;;;;2.65;2.30;;;;;;;;;;4957227;28;20080;-70
2022/04/02 04:36:49;;;;;;;3.35;2.95;;;;;;;;;;4956000;28;20134;-70
2022/04/02 04:39:17;;;;;;;3.88;2.58;;;;;;;;;;4935834;29;20040;-70
2022/04/02 04:41:48;;;;;;;2.42;2.22;;;;;;;;;;4956088;28;20078;-70
2022/04/02 04:44:19;;;;;;;7.10;3.53;;;;;;;;;;4954409;28;20056;-69
2022/04/02 04:46:48;;;;;;;5.10;2.78;;;;;;;;;;4955776;28;20054;-69
2022/04/02 04:49:18;;;;;;;6.15;2.63;;;;;;;;;;4955250;28;20051;-70
2022/04/02 04:51:59;;;;;;;5.90;2.47;;;;;;;;;;4941139;28;20110;-71
2022/04/02 04:54:29;;;;;;;4.35;2.47;;;;;;;;;;4950220;29;20491;-70
2022/04/02 04:56:59;;;;;;;4.00;2.72;;;;;;;;;;4955459;28;20078;-69
2022/04/02 04:59:27;;;;;;;6.72;3.22;;;;;;;;;;4954824;28;20078;-69
2022/04/02 05:01:56;;;;;;;3.67;2.90;;;;;;;;;;4950231;29;20054;-70
2022/04/02 05:04:24;;;;;;;5.30;2.45;;;;;;;;;;4949980;29;20055;-70
2022/04/02 05:06:55;;;;;;;6.25;2.78;;;;;;;;;;4966806;28;20450;-70
2022/04/02 05:09:26;;;;;;;5.05;4.25;;;;;;;;;;4964994;28;20043;-70
2022/04/02 05:11:59;;;;;;;17.98;2.83;;;;;;;;;;4967575;28;20047;-69
2022/04/02 05:14:29;;;;;;;6.53;2.80;;;;;;;;;;4940804;29;20063;-69
2022/04/02 05:17:01;;;;;;;5.78;2.53;;;;;;;;;;4951153;28;20046;-70
2022/04/02 05:19:33;;;;;;;6.72;2.50;;;;;;;;;;4963254;28;20075;-69
2022/04/02 05:22:05;;;;;;;5.78;2.47;;;;;;;;;;4944963;28;20091;-71
2022/04/02 05:24:42;;;;;;;5.22;2.75;;;;;;;;;;4940525;29;20058;-70
2022/04/02 05:27:09;;;;;;;6.85;2.90;;;;;;;;;;4948001;28;20062;-71
2022/04/02 05:29:38;;;;;;;4.45;2.78;;;;;;;;;;4946821;29;20047;-71
2022/04/02 05:32:09;;;;;;;5.68;3.00;;;;;;;;;;4948404;29;20051;-69
2022/04/02 05:34:40;;;;;;;2.70;2.50;;;;;;;;;;4945818;28;20494;-68
2022/04/02 05:37:08;;;;;;;4.05;2.95;;;;;;;;;;4949532;28;20055;-68
2022/04/02 05:39:36;;;;;;;8.50;4.40;;;;;;;;;;4932741;28;20047;-69
2022/04/02 05:42:07;;;;;;;5.32;3.28;;;;;;;;;;4935064;29;20058;-69
2022/04/02 05:44:36;;;;;;;7.18;4.43;;;;;;;;;;4943284;28;20104;-69
2022/04/02 05:47:04;;;;;;;9.65;5.97;;;;;;;;;;4933059;29;20471;-68
2022/04/02 05:49:46;;;;;;;17.48;10.13;;;;;;;;;;4950133;29;20087;-69
2022/04/02 05:52:16;;;;;;;13.07;8.02;;;;;;;;;;4945731;29;20047;-68
2022/04/02 05:54:46;;;;;;;10.30;6.32;;;;;;;;;;4944879;28;20067;-69
2022/04/02 05:57:18;;;;;;;9.38;4.72;;;;;;;;;;4941474;29;20073;-69
2022/04/02 05:59:46;;;;;;;5.07;3.03;;;;;;;;;;4951740;28;20577;-69
2022/04/02 06:02:14;;;;;;;4.40;3.17;;;;;;;;;;4940350;29;20082;-69
2022/04/02 06:04:43;;;;;;;5.35;3.47;;;;;;;;;;4937178;28;20183;-71
2022/04/02 06:07:11;;;;;;;6.93;2.80;;;;;;;;;;4936777;29;20114;-71
2022/04/02 06:09:40;;;;;;;5.22;2.95;;;;;;;;;;4949620;29;20102;-70
2022/04/02 06:12:09;;;;;;;2.50;2.30;;;;;;;;;;4944420;29;20055;-69
2022/04/02 06:14:38;;;;;;;4.50;2.67;;;;;;;;;;4943869;29;20057;-69
2022/04/02 06:17:06;;;;;;;2.92;2.65;;;;;;;;;;4943660;29;20047;-69
2022/04/02 06:19:34;;;;;;;4.00;2.65;;;;;;;;;;4940124;29;20054;-70
2022/04/02 06:22:07;;;;;;;5.72;3.08;;;;;;;;;;4951682;29;20126;-67
2022/04/02 06:24:35;;;;;;;6.80;2.90;;;;;;;;;;4947697;28;20055;-67
2022/04/02 06:27:05;;;;;;;3.20;2.90;;;;;;;;;;4943287;29;20059;-65
2022/04/02 06:29:34;;;;;;;7.05;3.30;;;;;;;;;;4951230;29;20058;-66
2022/04/02 06:32:03;;;;;;;6.07;4.00;;;;;;;;;;4946031;29;20051;-66
2022/04/02 06:34:31;;;;;;;9.23;4.65;;;;;;;;;;4922547;29;20051;-65
2022/04/02 06:37:00;;;;;;;4.47;3.55;;;;;;;;;;4951538;29;20057;-67
2022/04/02 06:39:29;;;;;;;5.00;3.72;;;;;;;;;;4956741;28;20051;-66
2022/04/02 06:41:58;;;;;;;5.60;3.67;;;;;;;;;;4958686;28;20522;-66
2022/04/02 06:44:35;;;;;;;4.15;3.42;;;;;;;;;;4957719;28;20053;-68
2022/04/02 06:47:05;;;;;;;4.57;3.97;;;;;;;;;;4945282;28;20079;-66
2022/04/02 06:49:34;;;;;;;5.22;3.17;;;;;;;;;;4943036;28;20078;-65
2022/04/02 06:52:03;;;;;;;3.40;3.10;;;;;;;;;;4939986;29;20447;-65
2022/04/02 06:54:33;;;;;;;3.00;2.63;;;;;;;;;;4940535;29;20095;-68
2022/04/02 06:57:04;;;;;;;5.10;3.00;;;;;;;;;;4940152;28;20051;-64
2022/04/02 06:59:32;;;;;;;2.65;2.45;;;;;;;;;;4940701;28;20055;-65
2022/04/02 07:02:05;;;;;;;3.63;1.90;;;;;;;;;;4938842;29;20094;-64
2022/04/02 07:04:33;;;;;;;2.95;1.83;;;;;;;;;;4939039;29;20052;-65
2022/04/02 07:07:01;;;;;;;4.13;1.98;;;;;;;;;;4937680;29;20491;-70
2022/04/02 07:09:30;;;;;;;3.65;2.40;;;;;;;;;;4939410;28;20063;-66
2022/04/02 07:11:59;;;;;;;2.58;2.28;;;;;;;;;;4938119;29;20414;-65
2022/04/02 07:14:28;;;;;;;4.80;2.55;;;;;;;;;;4953406;29;20047;-66
2022/04/02 07:16:57;;;;;;;3.85;2.20;;;;;;;;;;4952315;28;20058;-65
2022/04/02 07:19:26;;;;;;;2.70;2.10;;;;;;;;;;4941423;29;20529;-66
2022/04/02 07:21:55;;;;;;;3.50;2.03;;;;;;;;;;4938178;29;20418;-68
2022/04/02 07:24:22;;;;;;;2.30;1.58;;;;;;;;;;4939087;29;20055;-68
2022/04/02 07:26:54;;;;;;;2.33;1.88;;;;;;;;;;4956245;29;20058;-67
2022/04/02 07:29:26;;;;;;;4.80;2.45;;;;;;;;;;4946752;28;20411;-70
2022/04/02 07:31:55;;;;;;;2.05;1.58;;;;;;;;;;4954277;28;20075;-68
2022/04/02 07:34:24;;;;;;;2.28;1.52;;;;;;;;;;4939182;29;20051;-67
2022/04/02 07:37:01;;;;;;;2.92;1.77;;;;;;;;;;4939260;29;20484;-68
2022/04/02 07:39:44;;;;;;;2.53;1.60;;;;;;;;;;4939087;29;20055;-68
2022/04/02 07:42:20;;;;;;;4.15;1.80;;;;;;;;;;4939229;29;20070;-72
2022/04/02 07:45:13;;;;;;;5.03;1.88;;;;;;;;;;4947591;28;20050;-68
2022/04/02 07:47:54;;;;;;;4.97;1.52;;;;;;;;;;4954296;28;20051;-67
2022/04/02 07:50:25;;;;;;;4.70;1.75;;;;;;;;;;4950909;28;20562;-68
2022/04/02 07:52:58;;;;;;;19.27;2.42;;;;;;;;;;4944631;28;20062;-67
2022/04/02 07:55:29;;;;;;;4.37;2.40;;;;;;;;;;4944797;29;20634;-68
2022/04/02 07:58:03;;;;;;;2.55;2.00;;;;;;;;;;4950803;28;20309;-69
2022/04/02 08:00:34;;;;;;;3.25;2.05;;;;;;;;;;4945395;29;20059;-68
2022/04/02 08:03:02;;;;;;;3.38;1.80;;;;;;;;;;4950725;28;20491;-69
2022/04/02 08:05:30;;;;;;;4.75;3.08;;;;;;;;;;4950879;29;20044;-69
2022/04/02 08:08:03;;;;;;;2.13;1.80;;;;;;;;;;4941110;29;20127;-69
2022/04/02 08:10:35;;;;;;;3.60;2.03;;;;;;;;;;4970129;28;20059;-68
2022/04/02 08:13:05;;;;;;;3.55;2.58;;;;;;;;;;4951034;29;20297;-69
2022/04/02 08:15:35;;;;;;;2.50;1.70;;;;;;;;;;4949443;28;20044;-69
2022/04/02 08:18:09;;;;;;;2.72;1.67;;;;;;;;;;4944851;29;20056;-69
2022/04/02 08:20:37;;;;;;;3.22;2.00;;;;;;;;;;4947853;29;20130;-69
2022/04/02 08:23:06;;;;;;;3.10;2.03;;;;;;;;;;4948311;28;20446;-69
2022/04/02 08:25:37;;;;;;;4.53;2.30;;;;;;;;;;4945515;28;20047;-69
2022/04/02 08:28:19;;;;;;;3.40;2.33;;;;;;;;;;4948856;28;20105;-69
2022/04/02 08:31:33;;;;;;;4.50;2.35;;;;;;;;;;4952058;28;20051;-69
2022/04/02 08:34:39;;;;;;;6.95;2.67;;;;;;;;;;4946518;28;20467;-68
2022/04/02 08:37:29;;;;;;;3.03;2.05;;;;;;;;;;4949584;29;20059;-69
2022/04/02 08:40:01;;;;;;;4.00;2.00;;;;;;;;;;4944705;29;20043;-69
2022/04/02 08:43:06;;;;;;;2.33;1.85;;;;;;;;;;4941437;28;20052;-68
2022/04/02 08:45:48;;;;;;;3.60;1.95;;;;;;;;;;4944243;29;20070;-69
2022/04/02 08:48:25;;;;;;;2.60;2.00;;;;;;;;;;4943345;29;20482;-68
2022/04/02 08:51:40;;;;;;;2.55;1.90;;;;;;;;;;4943041;29;20052;-67
2022/04/02 08:54:17;;;;;;;3.03;1.63;;;;;;;;;;4943608;28;20059;-68
2022/04/02 08:56:47;;;;;;;2.53;1.80;;;;;;;;;;4952841;29;20573;-68
2022/04/02 08:59:34;;;;;;;2.97;1.88;;;;;;;;;;4953069;29;20058;-68
2022/04/02 09:02:49;;;;;;;3.05;1.70;;;;;;;;;;4953177;28;20043;-68
2022/04/02 09:05:24;;;;;;;5.28;3.08;;;;;;;;;;4945634;28;20455;-68
2022/04/02 09:08:02;;;;;;;4.45;2.22;;;;;;;;;;4946937;28;20567;-67
2022/04/02 09:10:48;;;;;;;5.65;1.77;;;;;;;;;;4942533;29;20056;-67
2022/04/02 09:13:40;;;;;;;2.75;1.48;;;;;;;;;;4909476;28;20086;-67
2022/04/02 09:16:10;;;;;;;2.10;1.60;;;;;;;;;;4941715;29;20509;-67
2022/04/02 09:19:22;;;;;;;4.82;1.83;;;;;;;;;;4944244;29;20510;-66
2022/04/02 09:21:53;;;;;;;3.33;1.77;;;;;;;;;;4949005;28;20511;-67
2022/04/02 09:25:08;;;;;;;4.07;2.40;;;;;;;;;;4937478;28;20058;-67
2022/04/02 09:27:39;;;;;;;;;;;;;;;;;;4916851;28;20102;-67
2022/04/02 09:30:41;;;;;;;2.85;2.05;;;;;;;;;;4937072;28;20442;-67
2022/04/02 09:33:20;;;;;;;7.50;1.70;;;;;;;;;;4937444;28;20088;-66
2022/04/02 09:36:20;;;;;;;2.85;1.63;;;;;;;;;;4953739;29;20526;-67
2022/04/02 09:38:54;;;;;;;3.35;1.60;;;;;;;;;;4956097;28;20503;-67
2022/04/02 09:41:52;;;;;;;3.67;1.88;;;;;;;;;;4955591;28;20086;-67
2022/04/02 09:44:53;;;;;;;4.28;1.92;;;;;;;;;;4955310;28;20047;-66
2022/04/02 09:47:45;;;;;;;3.33;1.67;;;;;;;;;;4954207;29;20392;-64
2022/04/02 09:50:32;;;;;;;5.05;2.00;;;;;;;;;;4955140;28;20063;-64
2022/04/02 09:53:11;;;;;;;4.65;2.38;;;;;;;;;;4955852;28;20047;-64
2022/04/02 09:56:18;;;;;;;2.85;1.67;;;;;;;;;;4955620;28;20043;-65
2022/04/02 09:58:52;;;;;;;2.72;1.80;;;;;;;;;;4953909;29;20063;-65
2022/04/02 10:01:49;;;;;;;5.28;2.40;;;;;;;;;;4948050;28;20041;-63
2022/04/02 10:04:56;;;;;;;3.60;1.70;;;;;;;;;;4935940;29;20054;-63
2022/04/02 10:08:05;;;;;;;3.28;2.30;;;;;;;;;;4943766;28;20407;-63
2022/04/02 10:10:34;;;;;;;5.28;1.90;;;;;;;;;;4938523;29;20087;-63
2022/04/02 10:13:03;;;;;;;1.80;1.63;;;;;;;;;;4936027;29;20050;-63
2022/04/02 10:15:32;;;;;;;3.20;1.95;;;;;;;;;;4936548;29;20059;-63
2022/04/02 10:18:04;;;;;;;3.28;2.15;;;;;;;;;;4936612;29;20074;-63
2022/04/02 10:20:36;;;;;;;2.13;2.03;;;;;;;;;;4936297;29;20047;-63
2022/04/02 10:23:13;;;;;;;9.35;1.98;;;;;;;;;;4937898;29;20066;-63
2022/04/02 10:26:18;;;;;;;6.00;2.17;;;;;;;;;;4942313;29;20044;-63
2022/04/02 10:28:53;;;;;;;4.55;1.95;;;;;;;;;;4943408;28;20138;-63
2022/04/02 10:31:37;;;;;;;3.28;1.65;;;;;;;;;;4950421;28;20047;-63
2022/04/02 10:34:11;;;;;;;2.30;1.95;;;;;;;;;;4951394;28;20055;-66
2022/04/02 10:36:49;;;;;;;3.45;2.13;;;;;;;;;;4935648;29;20139;-65
2022/04/02 10:39:22;;;;;;;2.47;1.70;;;;;;;;;;4935827;29;20056;-66
2022/04/02 10:42:11;;;;;;;3.88;1.95;;;;;;;;;;4935818;29;20051;-65
2022/04/02 10:44:44;;;;;;;5.47;2.15;;;;;;;;;;4935867;29;20051;-65
2022/04/02 10:47:16;;;;;;;3.70;1.90;;;;;;;;;;4935990;29;20062;-66
2022/04/02 10:49:50;;;;;;;2.53;1.75;;;;;;;;;;4935108;29;20051;-66
2022/04/02 10:52:21;;;;;;;1.70;1.20;;;;;;;;;;4935614;29;20044;-65
2022/04/02 10:54:50;;;;;;;2.67;1.08;;;;;;;;;;4935824;28;20052;-66
2022/04/02 10:57:18;;;;;;;4.22;1.50;;;;;;;;;;4934785;29;20618;-65
2022/04/02 10:59:53;;;;;;;3.97;1.38;;;;;;;;;;4936376;28;20073;-65
2022/04/02 11:02:26;;;;;;;2.25;1.75;;;;;;;;;;4936192;28;20047;-65
2022/04/02 11:04:57;;;;;;;3.38;2.05;;;;;;;;;;4936172;28;20047;-65
2022/04/02 11:07:30;;;;;;;3.28;1.55;;;;;;;;;;4936010;29;20060;-65
2022/04/02 11:09:59;;;;;;;2.95;1.65;;;;;;;;;;4935844;29;20051;-65
2022/04/02 11:12:29;;;;;;;2.58;1.70;;;;;;;;;;4939655;29;20063;-67
2022/04/02 11:15:27;;;;;;;33.72;3.75;;;;;;;;;;4954891;28;20047;-68
2022/04/02 11:17:58;;;;;;;4.22;1.92;;;;;;;;;;4954792;28;20047;-67
2022/04/02 11:20:31;;;;;;;4.57;1.63;;;;;;;;;;4952691;28;20067;-67
2022/04/02 11:23:11;;;;;;;2.60;1.70;;;;;;;;;;4936431;28;20059;-68
2022/04/02 11:25:46;;;;;;;3.58;1.63;;;;;;;;;;4936113;28;20131;-67
2022/04/02 11:28:19;;;;;;;3.42;1.45;;;;;;;;;;4939734;28;20578;-67
2022/04/02 11:31:13;;;;;;;2.35;1.40;;;;;;;;;;4939249;28;20058;-67
2022/04/02 11:33:51;;;;;;;3.78;1.33;;;;;;;;;;4947776;28;20065;-68
2022/04/02 11:36:25;;;;;;;3.25;1.20;;;;;;;;;;4944860;29;20067;-67
2022/04/02 11:38:59;;;;;;;4.35;3.10;;;;;;;;;;4950277;28;20393;-68
2022/04/02 11:41:37;;;;;;;3.03;1.63;;;;;;;;;;4944172;28;20059;-69
2022/04/02 11:44:28;;;;;;;2.75;1.65;;;;;;;;;;4943540;28;20122;-70
2022/04/02 11:47:02;;;;;;;2.63;2.08;;;;;;;;;;4938013;29;20063;-71
2022/04/02 11:49:39;;;;;;;3.45;1.70;;;;;;;;;;4947384;29;20142;-71
2022/04/02 11:52:10;;;;;;;5.47;2.30;;;;;;;;;;4947780;28;20075;-70
2022/04/02 11:55:00;;;;;;;3.00;1.65;;;;;;;;;;4939453;29;20047;-73
2022/04/02 11:57:28;;;;;;;3.67;1.30;;;;;;;;;;4945988;29;20047;-75
2022/04/02 12:00:05;;;;;;;2.10;1.90;;;;;;;;;;4953811;28;20067;-67
2022/04/02 12:02:44;;;;;;;2.00;1.77;;;;;;;;;;4938889;29;20055;-68
2022/04/02 12:05:13;;;;;;;4.75;1.60;;;;;;;;;;4940483;29;20052;-66
2022/04/02 12:07:42;;;;;;;3.88;2.17;;;;;;;;;;4955794;29;20049;-67
2022/04/02 12:10:32;;;;;;;2.15;1.65;;;;;;;;;;4949043;28;20060;-67
2022/04/02 12:13:12;;;;;;;2.40;1.58;;;;;;;;;;4938625;29;20511;-67
2022/04/02 12:16:09;;;;;;;3.65;1.55;;;;;;;;;;4938373;29;20411;-67
2022/04/02 12:18:59;;;;;;;1.98;1.52;;;;;;;;;;4938793;29;20071;-72
2022/04/02 12:21:34;;;;;;;2.20;1.45;;;;;;;;;;4938352;29;20048;-67
2022/04/02 12:24:04;;;;;;;1.98;1.42;;;;;;;;;;4937928;29;20047;-67
2022/04/02 12:26:34;;;;;;;2.17;1.45;;;;;;;;;;4938614;29;20059;-67
2022/04/02 12:29:05;;;;;;;2.50;1.63;;;;;;;;;;4938302;28;20094;-67
2022/04/02 12:31:35;;;;;;;2.40;1.60;;;;;;;;;;4937763;29;20393;-67
2022/04/02 12:34:05;;;;;;;4.82;2.72;;;;;;;;;;4937031;29;20427;-67
2022/04/02 12:36:40;;;;;;;2.75;1.42;;;;;;;;;;4937580;29;20246;-66
2022/04/02 12:39:12;;;;;;;2.85;2.40;;;;;;;;;;4938261;28;20403;-67
2022/04/02 12:41:46;;;;;;;3.13;1.58;;;;;;;;;;4938036;28;20058;-67
2022/04/02 12:44:19;;;;;;;3.23;1.80;;;;;;;;;;4951435;28;20388;-65
2022/04/02 12:46:52;;;;;;;2.65;1.58;;;;;;;;;;4956899;28;20059;-66
2022/04/02 12:49:33;;;;;;;4.40;1.42;;;;;;;;;;4947129;28;20474;-67
2022/04/02 12:52:22;;;;;;;2.45;1.63;;;;;;;;;;4955545;29;20067;-67
2022/04/02 12:54:53;;;;;;;6.13;2.50;;;;;;;;;;4956026;28;20051;-73
2022/04/02 12:57:23;;;;;;;3.67;1.73;;;;;;;;;;4940812;29;20055;-64
2022/04/02 12:59:54;;;;;;;3.60;2.28;;;;;;;;;;4945220;28;20052;-67
2022/04/02 13:02:25;;;;;;;4.90;1.40;;;;;;;;;;4942566;29;20047;-66
2022/04/02 13:05:06;;;;;;;1.83;1.48;;;;;;;;;;4946955;29;20039;-66
2022/04/02 13:07:35;;;;;;;1.55;1.20;;;;;;;;;;4941988;29;20451;-66
2022/04/02 13:10:07;;;;;;;2.03;1.55;;;;;;;;;;4946789;28;20054;-66
2022/04/02 13:12:37;;;;;;;3.95;1.60;;;;;;;;;;4943052;28;20131;-67
2022/04/02 13:15:09;;;;;;;1.67;1.30;;;;;;;;;;4948372;29;20106;-68
2022/04/02 13:20:36;;;;;;;1.20;0.90;;;;;;;;;;4945127;28;20111;-67
2022/04/02 13:23:07;;;;;;;1.48;1.13;;;;;;;;;;4952717;28;20466;-68
2022/04/02 13:25:48;;;;;;;1.42;0.95;;;;;;;;;;4942701;29;20063;-68
2022/04/02 13:28:47;;;;;;;3.65;0.93;;;;;;;;;;4941448;29;20130;-67
2022/04/02 13:31:20;;;;;;;2.35;1.10;;;;;;;;;;4947804;29;20047;-68
2022/04/02 13:34:31;;;;;;;1.88;1.30;;;;;;;;;;4950562;28;20581;-67
2022/04/02 13:38:13;;;;;;;1.58;1.38;;;;;;;;;;4940512;29;20522;-68
2022/04/02 13:40:45;;;;;;;3.50;1.42;;;;;;;;;;4946627;28;20059;-68
2022/04/02 13:43:21;;;;;;;4.72;1.80;;;;;;;;;;4946155;28;20150;-68
2022/04/02 13:45:53;;;;;;;2.03;1.30;;;;;;;;;;4942192;29;20075;-67
2022/04/02 13:48:23;;;;;;;3.53;1.30;;;;;;;;;;4947761;28;20053;-67
2022/04/02 13:51:18;;;;;;;1.98;1.48;;;;;;;;;;4945582;29;20067;-66
2022/04/02 13:53:52;;;;;;;1.08;1.08;;;;;;;;;;4948564;29;20059;-67
2022/04/02 13:56:23;;;;;;;2.05;1.35;;;;;;;;;;4949706;28;20419;-66
2022/04/02 13:58:55;;;;;;;3.88;1.30;;;;;;;;;;4947926;29;20517;-66
2022/04/02 14:01:26;;;;;;;4.95;1.45;;;;;;;;;;4947332;29;20051;-67
2022/04/02 14:04:13;;;;;;;2.08;1.40;;;;;;;;;;4943406;29;20049;-67
2022/04/02 14:06:44;;;;;;;2.13;1.67;;;;;;;;;;4941127;29;20052;-66
2022/04/02 14:09:13;;;;;;;2.83;1.63;;;;;;;;;;4946326;29;20575;-66
2022/04/02 14:11:44;;;;;;;2.88;1.60;;;;;;;;;;4952412;28;20050;-66
2022/04/02 14:14:22;;;;;;;2.95;1.60;;;;;;;;;;4947938;28;20055;-69
2022/04/02 14:17:05;;;;;;;2.13;1.45;;;;;;;;;;4952409;28;20114;-67
2022/04/02 14:19:49;;;;;;;2.88;1.70;;;;;;;;;;4946636;28;20074;-67
2022/04/02 14:22:23;;;;;;;2.03;1.23;;;;;;;;;;4950445;29;20097;-67
2022/04/02 14:25:19;;;;;;;2.42;1.50;;;;;;;;;;4947621;28;20063;-67
2022/04/02 14:28:05;;;;;;;1.70;1.40;;;;;;;;;;4942362;29;20396;-67
2022/04/02 14:31:02;;;;;;;3.03;1.90;;;;;;;;;;4945424;29;20050;-67
2022/04/02 14:33:40;;;;;;;2.33;1.13;;;;;;;;;;4943665;29;20464;-67
2022/04/02 14:36:17;;;;;;;2.15;1.30;;;;;;;;;;4944783;29;20079;-66
2022/04/02 14:39:22;;;;;;;1.67;1.27;;;;;;;;;;4946502;28;20043;-67
2022/04/02 14:42:29;;;;;;;1.80;1.30;;;;;;;;;;4944960;28;20059;-66
2022/04/02 14:45:30;;;;;;;2.75;1.30;;;;;;;;;;4948841;29;20052;-66
2022/04/02 14:48:05;;;;;;;1.48;1.38;;;;;;;;;;4943251;29;20502;-67
2022/04/02 14:50:48;;;;;;;5.95;1.25;;;;;;;;;;4946733;28;20498;-67
2022/04/02 14:53:34;;;;;;;2.35;1.20;;;;;;;;;;4944866;28;20166;-67
2022/04/02 14:56:30;;;;;;;3.38;2.63;;;;;;;;;;4945608;28;20412;-67
2022/04/02 14:59:28;;;;;;;2.70;1.60;;;;;;;;;;4941329;28;20055;-66
2022/04/02 15:02:35;;;;;;;1.65;1.30;;;;;;;;;;4940821;28;20047;-66
2022/04/02 15:05:30;;;;;;;4.65;1.70;;;;;;;;;;4948222;29;20044;-67
2022/04/02 15:08:42;;;;;;;4.82;2.33;;;;;;;;;;4950057;29;20047;-67
2022/04/02 15:11:20;;;;;;;2.50;2.30;;;;;;;;;;4950176;29;20046;-66
2022/04/02 15:13:58;;;;;;;2.85;1.35;;;;;;;;;;4948024;28;20126;-66
2022/04/02 15:16:34;;;;;;;1.88;1.30;;;;;;;;;;4952043;29;20491;-66
2022/04/02 15:19:31;;;;;;;1.63;1.35;;;;;;;;;;4948673;29;20071;-66
2022/04/02 15:22:00;;;;;;;3.45;1.50;;;;;;;;;;4948349;28;20530;-66
2022/04/02 15:24:40;;;;;;;1.80;1.20;;;;;;;;;;4947703;29;20490;-66
2022/04/02 15:27:12;;;;;;;1.88;1.10;;;;;;;;;;4949608;28;20058;-66
2022/04/02 15:29:43;;;;;;;1.85;1.23;;;;;;;;;;4951435;28;20130;-67
2022/04/02 15:32:41;;;;;;;3.35;1.08;;;;;;;;;;4957595;28;20133;-65
2022/04/02 15:35:18;;;;;;;3.47;1.35;;;;;;;;;;4951752;28;20047;-65
2022/04/02 15:38:18;;;;;;;1.87;1.43;;;;;;;;;;4951221;28;20067;-66
2022/04/02 15:41:06;;;;;;;2.08;1.13;;;;;;;;;;4952076;28;20299;-67
2022/04/02 15:43:37;;;;;;;3.53;1.48;;;;;;;;;;4946484;28;20071;-67